Time;durP1;ratioP1;P1;durP2;ratioP2;P2;SDS_P1;SDS_P2;PMS_P1;PMS_P2;Temp;Humidity;BMP_temperature;BMP_pressure;BME280_temperature;BME280_humidity;BME280_pressure;Samples;Min_cycle;Max_cycle;Signal;HPM_P1;HPM_P2
2022/10/27 00:02:14;;;;;;;2.60;2.40;;;;;;;;;;5089814;28;20236;-89
2022/10/27 00:04:41;;;;;;;5.20;3.00;;;;;;;;;;5095070;28;20216;-89
2022/10/27 00:07:08;;;;;;;4.10;2.77;;;;;;;;;;5094866;28;20581;-89
2022/10/27 00:09:37;;;;;;;3.57;3.23;;;;;;;;;;5094811;28;20686;-89
2022/10/27 00:12:04;;;;;;;2.93;2.73;;;;;;;;;;5094800;28;20263;-89
2022/10/27 00:14:31;;;;;;;5.70;3.17;;;;;;;;;;5095021;28;20708;-89
2022/10/27 00:16:58;;;;;;;7.00;3.87;;;;;;;;;;5094750;28;20240;-89
2022/10/27 00:19:25;;;;;;;6.57;3.30;;;;;;;;;;5094589;28;20197;-89
2022/10/27 00:21:52;;;;;;;9.37;3.60;;;;;;;;;;5094232;28;20225;-89
2022/10/27 00:24:20;;;;;;;4.37;3.33;;;;;;;;;;5094623;28;20252;-89
2022/10/27 00:26:48;;;;;;;3.40;3.10;;;;;;;;;;5094022;28;20602;-89
2022/10/27 00:29:15;;;;;;;4.60;3.30;;;;;;;;;;5093795;28;20275;-89
2022/10/27 00:31:42;;;;;;;5.10;3.57;;;;;;;;;;5094366;28;20221;-89
2022/10/27 00:34:09;;;;;;;7.90;3.90;;;;;;;;;;5094516;28;20217;-89
2022/10/27 00:36:36;;;;;;;4.13;3.43;;;;;;;;;;5094071;28;20694;-89
2022/10/27 00:39:03;;;;;;;7.83;4.03;;;;;;;;;;5094189;28;20204;-90
2022/10/27 00:41:32;;;;;;;6.37;3.30;;;;;;;;;;5094608;28;20203;-89
2022/10/27 00:44:01;;;;;;;5.50;3.43;;;;;;;;;;5094284;28;20243;-89
2022/10/27 00:46:37;;;;;;;5.33;3.50;;;;;;;;;;5093750;28;20197;-89
2022/10/27 00:49:06;;;;;;;5.10;3.43;;;;;;;;;;5094266;28;20552;-89
2022/10/27 00:51:34;;;;;;;4.93;3.63;;;;;;;;;;5094115;28;20587;-89
2022/10/27 00:54:01;;;;;;;3.83;3.50;;;;;;;;;;5094582;28;20235;-89
2022/10/27 00:56:28;;;;;;;5.43;3.60;;;;;;;;;;5094608;28;20204;-89
2022/10/27 00:58:55;;;;;;;6.20;4.30;;;;;;;;;;5094312;28;20766;-89
2022/10/27 01:01:24;;;;;;;5.87;4.30;;;;;;;;;;5093265;28;20667;-89
2022/10/27 01:03:51;;;;;;;8.40;5.37;;;;;;;;;;5090666;28;20221;-89
2022/10/27 01:06:18;;;;;;;6.70;4.27;;;;;;;;;;5075618;28;20212;-89
2022/10/27 01:08:45;;;;;;;7.07;3.97;;;;;;;;;;5086534;28;20227;-89
2022/10/27 01:11:12;;;;;;;7.77;4.47;;;;;;;;;;5113051;28;20221;-89
2022/10/27 01:13:39;;;;;;;4.97;4.07;;;;;;;;;;5095827;28;20246;-89
2022/10/27 01:16:12;;;;;;;5.57;4.27;;;;;;;;;;5094294;28;20216;-89
2022/10/27 01:18:44;;;;;;;5.43;3.53;;;;;;;;;;5093270;28;20722;-89
2022/10/27 01:21:23;;;;;;;4.17;3.30;;;;;;;;;;5094088;28;20561;-89
2022/10/27 01:24:19;;;;;;;3.83;3.13;;;;;;;;;;5093759;28;20719;-89
2022/10/27 01:26:49;;;;;;;4.53;2.77;;;;;;;;;;5071115;28;20228;-88
2022/10/27 01:29:34;;;;;;;4.47;2.80;;;;;;;;;;5093349;28;20188;-89
2022/10/27 01:32:06;;;;;;;3.17;2.80;;;;;;;;;;5092914;28;20606;-89
2022/10/27 01:34:37;;;;;;;6.17;3.30;;;;;;;;;;5093744;28;20220;-89
2022/10/27 01:37:09;;;;;;;7.80;3.33;;;;;;;;;;5093327;28;20604;-89
2022/10/27 01:39:38;;;;;;;6.23;3.23;;;;;;;;;;5092981;28;20478;-89
2022/10/27 01:42:08;;;;;;;5.53;3.20;;;;;;;;;;5092491;28;20307;-90
2022/10/27 01:44:37;;;;;;;6.30;3.10;;;;;;;;;;5093548;28;20243;-89
2022/10/27 01:47:06;;;;;;;5.13;2.70;;;;;;;;;;5093317;28;20233;-89
2022/10/27 01:49:36;;;;;;;3.37;2.60;;;;;;;;;;5093242;28;20227;-89
2022/10/27 01:52:04;;;;;;;3.53;2.50;;;;;;;;;;5092964;28;20236;-89
2022/10/27 01:54:32;;;;;;;4.50;3.37;;;;;;;;;;5093074;28;20228;-89
2022/10/27 01:57:05;;;;;;;4.80;2.60;;;;;;;;;;5092710;28;20235;-89
2022/10/27 01:59:42;;;;;;;3.17;2.50;;;;;;;;;;5093115;28;20200;-89
2022/10/27 02:02:16;;;;;;;2.17;1.97;;;;;;;;;;5092670;28;20228;-90
2022/10/27 02:04:47;;;;;;;3.63;2.43;;;;;;;;;;5093142;28;20223;-90
2022/10/27 02:07:18;;;;;;;3.00;2.70;;;;;;;;;;5092670;28;20232;-90
2022/10/27 02:09:47;;;;;;;5.03;3.00;;;;;;;;;;5092707;28;20200;-90
2022/10/27 02:12:17;;;;;;;3.30;3.00;;;;;;;;;;5092449;28;20743;-88
2022/10/27 02:14:44;;;;;;;4.27;3.00;;;;;;;;;;5093424;28;20227;-89
2022/10/27 02:17:14;;;;;;;3.37;2.97;;;;;;;;;;5092675;28;20223;-90
2022/10/27 02:19:42;;;;;;;5.60;2.90;;;;;;;;;;5093178;28;20249;-89
2022/10/27 02:22:10;;;;;;;7.50;3.37;;;;;;;;;;5092492;28;20232;-90
2022/10/27 02:24:37;;;;;;;3.60;3.23;;;;;;;;;;5092984;28;20232;-89
2022/10/27 02:27:08;;;;;;;3.30;3.00;;;;;;;;;;5092640;28;20239;-89
2022/10/27 02:29:36;;;;;;;3.47;3.17;;;;;;;;;;5093041;28;20640;-89
2022/10/27 02:32:05;;;;;;;3.20;2.90;;;;;;;;;;5092368;28;20239;-89
2022/10/27 02:34:34;;;;;;;3.93;3.00;;;;;;;;;;5092890;28;20216;-89
2022/10/27 02:37:01;;;;;;;3.57;3.20;;;;;;;;;;5092453;28;20229;-90
2022/10/27 02:39:29;;;;;;;8.03;3.30;;;;;;;;;;5092800;28;20648;-90
2022/10/27 02:41:56;;;;;;;4.17;3.10;;;;;;;;;;5092639;28;20228;-89
2022/10/27 02:44:23;;;;;;;4.07;3.10;;;;;;;;;;5092291;28;20766;-89
2022/10/27 02:46:50;;;;;;;4.60;3.23;;;;;;;;;;5092369;28;20228;-89
2022/10/27 02:49:17;;;;;;;4.40;3.33;;;;;;;;;;5092790;28;20208;-90
2022/10/27 02:51:45;;;;;;;4.73;2.77;;;;;;;;;;5092730;28;20700;-89
2022/10/27 02:54:12;;;;;;;6.47;3.07;;;;;;;;;;5080450;28;20232;-89
2022/10/27 02:56:40;;;;;;;3.50;2.47;;;;;;;;;;5096175;28;20211;-90
2022/10/27 02:59:07;;;;;;;3.00;2.73;;;;;;;;;;5096191;28;20201;-89
2022/10/27 03:01:34;;;;;;;2.73;2.53;;;;;;;;;;5096095;28;20201;-90
2022/10/27 03:04:01;;;;;;;2.67;2.30;;;;;;;;;;5095936;28;20248;-90
2022/10/27 03:06:28;;;;;;;2.40;2.20;;;;;;;;;;5095877;28;20586;-89
2022/10/27 03:08:56;;;;;;;2.50;2.17;;;;;;;;;;5095969;28;20201;-89
2022/10/27 03:11:23;;;;;;;7.63;2.40;;;;;;;;;;5095496;28;20221;-89
2022/10/27 03:13:50;;;;;;;2.83;2.63;;;;;;;;;;5096494;28;20229;-90
2022/10/27 03:16:17;;;;;;;2.67;2.47;;;;;;;;;;5096393;28;20207;-89
2022/10/27 03:18:44;;;;;;;2.40;2.20;;;;;;;;;;5095156;28;20225;-89
2022/10/27 03:21:11;;;;;;;2.43;2.23;;;;;;;;;;5087957;28;20652;-89
2022/10/27 03:23:39;;;;;;;2.10;2.00;;;;;;;;;;5095504;28;20232;-90
2022/10/27 03:26:08;;;;;;;2.60;2.40;;;;;;;;;;5095975;28;20224;-90
2022/10/27 03:28:35;;;;;;;4.70;2.50;;;;;;;;;;5095251;28;20225;-89
2022/10/27 03:31:02;;;;;;;3.17;2.30;;;;;;;;;;5094989;28;20215;-90
2022/10/27 03:33:29;;;;;;;2.87;2.67;;;;;;;;;;5095371;28;20235;-89
2022/10/27 03:35:56;;;;;;;3.00;2.70;;;;;;;;;;5095581;28;20208;-89
2022/10/27 03:38:23;;;;;;;2.70;2.50;;;;;;;;;;5095089;28;20701;-89
2022/10/27 03:40:50;;;;;;;2.83;2.57;;;;;;;;;;5095471;28;20208;-90
2022/10/27 03:43:19;;;;;;;3.17;2.87;;;;;;;;;;5095192;28;20243;-91
2022/10/27 03:45:48;;;;;;;3.83;3.00;;;;;;;;;;5095964;28;20205;-90
2022/10/27 03:48:15;;;;;;;3.47;2.70;;;;;;;;;;5094640;28;20767;-89
2022/10/27 03:50:45;;;;;;;5.83;3.33;;;;;;;;;;5095244;28;20204;-91
2022/10/27 03:53:12;;;;;;;4.23;3.03;;;;;;;;;;5094378;28;20232;-90
2022/10/27 03:55:39;;;;;;;4.13;3.53;;;;;;;;;;5080798;28;20193;-89
2022/10/27 03:58:06;;;;;;;3.77;3.47;;;;;;;;;;5094420;28;20236;-90
2022/10/27 04:00:35;;;;;;;5.43;3.60;;;;;;;;;;5095153;28;20209;-89
2022/10/27 04:03:02;;;;;;;4.30;3.50;;;;;;;;;;5093983;28;20225;-89
2022/10/27 04:05:29;;;;;;;3.67;3.37;;;;;;;;;;5094785;28;20572;-89
2022/10/27 04:07:56;;;;;;;5.37;3.47;;;;;;;;;;5093948;28;20315;-89
2022/10/27 04:10:23;;;;;;;6.87;3.70;;;;;;;;;;5095283;28;20215;-89
2022/10/27 04:12:50;;;;;;;4.83;3.73;;;;;;;;;;5094318;28;20233;-89
2022/10/27 04:15:17;;;;;;;8.13;4.27;;;;;;;;;;5094602;28;20217;-89
2022/10/27 04:17:46;;;;;;;11.07;4.53;;;;;;;;;;5093734;28;20228;-89
2022/10/27 04:20:14;;;;;;;11.47;5.20;;;;;;;;;;5094533;28;20217;-89
2022/10/27 04:22:41;;;;;;;5.60;4.53;;;;;;;;;;5094233;28;20225;-89
2022/10/27 04:25:08;;;;;;;6.83;4.60;;;;;;;;;;5094224;28;20212;-89
2022/10/27 04:27:35;;;;;;;10.00;4.83;;;;;;;;;;5094115;28;20224;-90
2022/10/27 04:30:02;;;;;;;5.67;4.70;;;;;;;;;;5094633;28;20208;-89
2022/10/27 04:32:29;;;;;;;7.10;4.77;;;;;;;;;;5094358;28;20239;-89
2022/10/27 04:34:58;;;;;;;9.43;4.47;;;;;;;;;;5094174;28;20220;-89
2022/10/27 04:37:25;;;;;;;6.83;4.57;;;;;;;;;;5094071;28;20232;-89
2022/10/27 04:39:52;;;;;;;6.40;4.17;;;;;;;;;;5094002;28;20196;-89
2022/10/27 04:42:19;;;;;;;7.80;4.43;;;;;;;;;;5094277;28;20233;-89
2022/10/27 04:44:46;;;;;;;9.20;5.10;;;;;;;;;;5094219;28;20237;-89
2022/10/27 04:47:13;;;;;;;6.53;5.07;;;;;;;;;;5094261;28;20224;-89
2022/10/27 04:49:40;;;;;;;10.53;5.30;;;;;;;;;;5094058;28;20197;-89
2022/10/27 04:52:09;;;;;;;9.80;5.33;;;;;;;;;;5094070;28;20233;-89
2022/10/27 04:54:36;;;;;;;8.93;5.07;;;;;;;;;;5094234;28;20600;-89
2022/10/27 04:57:03;;;;;;;9.20;5.07;;;;;;;;;;5093669;28;20589;-89
2022/10/27 04:59:30;;;;;;;11.10;5.77;;;;;;;;;;5093897;28;20551;-89
2022/10/27 05:01:57;;;;;;;7.40;5.00;;;;;;;;;;5085913;28;20731;-89
2022/10/27 05:04:24;;;;;;;5.27;4.77;;;;;;;;;;5087442;28;20232;-89
2022/10/27 05:06:51;;;;;;;5.97;4.63;;;;;;;;;;5092442;28;20248;-89
2022/10/27 05:09:20;;;;;;;6.37;4.03;;;;;;;;;;5094473;28;20212;-91
2022/10/27 05:11:47;;;;;;;6.13;4.23;;;;;;;;;;5094974;28;20700;-92
2022/10/27 05:14:14;;;;;;;5.73;3.60;;;;;;;;;;5094635;28;20573;-92
2022/10/27 05:16:41;;;;;;;4.70;3.97;;;;;;;;;;5094376;28;20247;-92
2022/10/27 05:19:19;;;;;;;6.33;4.20;;;;;;;;;;5095059;28;20212;-93
2022/10/27 05:21:46;;;;;;;7.40;3.90;;;;;;;;;;5074365;28;20233;-90
2022/10/27 05:24:13;;;;;;;6.07;4.70;;;;;;;;;;5074463;28;20228;-90
2022/10/27 05:26:42;;;;;;;7.90;5.23;;;;;;;;;;5073873;28;20309;-90
2022/10/27 05:29:20;;;;;;;8.00;6.30;;;;;;;;;;5075360;28;20201;-89
2022/10/27 05:32:06;;;;;;;9.13;5.63;;;;;;;;;;5093433;28;20228;-90
2022/10/27 05:34:55;;;;;;;13.90;7.07;;;;;;;;;;5094294;28;20223;-90
2022/10/27 05:37:22;;;;;;;11.70;7.13;;;;;;;;;;5093714;28;20231;-89
2022/10/27 05:39:50;;;;;;;11.07;6.60;;;;;;;;;;5088037;28;20208;-87
2022/10/27 05:42:18;;;;;;;10.93;6.33;;;;;;;;;;5094171;28;20228;-89
2022/10/27 05:44:46;;;;;;;7.87;5.50;;;;;;;;;;5094262;28;20685;-88
2022/10/27 05:47:13;;;;;;;5.13;4.63;;;;;;;;;;5080332;28;20229;-88
2022/10/27 05:49:40;;;;;;;6.67;5.00;;;;;;;;;;5087726;28;20212;-89
2022/10/27 05:52:14;;;;;;;7.57;5.40;;;;;;;;;;5092925;28;20240;-89
2022/10/27 05:54:41;;;;;;;6.70;4.80;;;;;;;;;;5093502;28;20238;-88
2022/10/27 05:57:14;;;;;;;11.33;5.20;;;;;;;;;;5092916;28;20311;-90
2022/10/27 05:59:44;;;;;;;10.80;6.03;;;;;;;;;;5093689;28;20189;-89
2022/10/27 06:02:11;;;;;;;8.53;5.33;;;;;;;;;;5093422;28;20228;-91
2022/10/27 06:04:39;;;;;;;13.23;5.33;;;;;;;;;;5084456;28;20224;-92
2022/10/27 06:07:07;;;;;;;9.63;5.33;;;;;;;;;;5094186;28;20228;-92
2022/10/27 06:09:34;;;;;;;9.10;5.57;;;;;;;;;;5094200;28;20208;-91
2022/10/27 06:12:01;;;;;;;10.67;5.23;;;;;;;;;;5093959;28;20229;-91
2022/10/27 06:14:28;;;;;;;6.77;4.30;;;;;;;;;;5078964;28;20569;-91
2022/10/27 06:16:56;;;;;;;11.20;5.50;;;;;;;;;;5072769;28;20220;-92
2022/10/27 06:19:23;;;;;;;9.07;4.97;;;;;;;;;;5073386;28;20205;-91
2022/10/27 06:21:51;;;;;;;8.60;5.23;;;;;;;;;;5072729;28;20239;-91
2022/10/27 06:24:18;;;;;;;15.67;5.70;;;;;;;;;;5073751;28;20217;-91
2022/10/27 06:26:45;;;;;;;15.57;5.90;;;;;;;;;;5081305;28;20571;-92
2022/10/27 06:29:12;;;;;;;12.40;5.73;;;;;;;;;;5097104;28;20196;-91
2022/10/27 06:31:41;;;;;;;9.57;5.83;;;;;;;;;;5096873;28;20205;-91
2022/10/27 06:34:10;;;;;;;10.50;6.13;;;;;;;;;;5096006;28;20233;-89
2022/10/27 06:36:46;;;;;;;9.73;6.33;;;;;;;;;;5099474;28;20204;-91
2022/10/27 06:39:13;;;;;;;10.73;6.57;;;;;;;;;;5092113;28;20212;-89
2022/10/27 06:41:47;;;;;;;9.50;5.20;;;;;;;;;;5094464;28;20205;-91
2022/10/27 06:44:14;;;;;;;8.27;5.50;;;;;;;;;;5101730;28;20223;-91
2022/10/27 06:46:41;;;;;;;8.60;5.23;;;;;;;;;;5098820;28;20696;-90
2022/10/27 06:49:09;;;;;;;6.33;4.77;;;;;;;;;;5094351;28;20197;-92
2022/10/27 06:51:36;;;;;;;6.87;5.23;;;;;;;;;;5097225;28;20208;-92
2022/10/27 06:54:03;;;;;;;6.83;5.17;;;;;;;;;;5097277;28;20232;-89
2022/10/27 06:56:31;;;;;;;7.23;5.50;;;;;;;;;;5096679;28;20569;-91
2022/10/27 06:58:58;;;;;;;10.10;5.30;;;;;;;;;;5097852;28;20208;-92
2022/10/27 07:01:25;;;;;;;6.70;5.33;;;;;;;;;;5097643;28;20197;-89
2022/10/27 07:03:52;;;;;;;11.93;6.10;;;;;;;;;;5097066;28;20227;-89
2022/10/27 07:06:20;;;;;;;8.60;5.63;;;;;;;;;;5097007;28;20204;-89
2022/10/27 07:08:48;;;;;;;10.80;5.90;;;;;;;;;;5096293;28;20231;-89
2022/10/27 07:11:15;;;;;;;9.93;6.20;;;;;;;;;;5098008;28;20219;-91
2022/10/27 07:13:43;;;;;;;8.20;5.47;;;;;;;;;;5097894;28;20232;-87
2022/10/27 07:16:10;;;;;;;6.23;5.57;;;;;;;;;;5076544;28;20212;-88
2022/10/27 07:18:38;;;;;;;8.40;6.03;;;;;;;;;;5079557;28;20294;-87
2022/10/27 07:21:05;;;;;;;5.60;5.10;;;;;;;;;;5096151;28;20209;-87
2022/10/27 07:23:33;;;;;;;7.33;5.50;;;;;;;;;;5095414;28;20229;-86
2022/10/27 07:26:00;;;;;;;6.47;5.53;;;;;;;;;;5095552;28;20204;-86
2022/10/27 07:28:27;;;;;;;7.57;5.50;;;;;;;;;;5095643;28;20228;-91
2022/10/27 07:30:55;;;;;;;10.40;6.33;;;;;;;;;;5097206;28;20197;-91
2022/10/27 07:33:22;;;;;;;9.07;5.20;;;;;;;;;;5095538;28;20802;-87
2022/10/27 07:35:52;;;;;;;9.23;5.77;;;;;;;;;;5095388;28;20673;-87
2022/10/27 07:38:19;;;;;;;8.13;6.23;;;;;;;;;;5093641;28;20239;-88
2022/10/27 07:40:49;;;;;;;7.77;6.00;;;;;;;;;;5096092;28;20683;-87
2022/10/27 07:43:16;;;;;;;9.43;5.90;;;;;;;;;;5089726;28;20230;-87
2022/10/27 07:45:43;;;;;;;6.50;5.73;;;;;;;;;;5075409;28;20205;-87
2022/10/27 07:48:12;;;;;;;8.20;6.07;;;;;;;;;;5074387;28;20244;-87
2022/10/27 07:50:39;;;;;;;8.23;6.50;;;;;;;;;;5075075;28;20205;-87
2022/10/27 07:53:10;;;;;;;9.63;6.47;;;;;;;;;;5074718;28;20607;-91
2022/10/27 07:55:39;;;;;;;8.50;6.93;;;;;;;;;;5075389;28;20210;-90
2022/10/27 07:58:08;;;;;;;8.93;7.20;;;;;;;;;;5075326;28;20225;-90
2022/10/27 08:00:36;;;;;;;11.00;7.53;;;;;;;;;;5084705;28;20204;-90
2022/10/27 08:03:04;;;;;;;9.27;7.03;;;;;;;;;;5094661;28;20602;-86
2022/10/27 08:05:31;;;;;;;11.50;7.83;;;;;;;;;;5095070;28;20208;-89
2022/10/27 08:07:59;;;;;;;9.40;7.60;;;;;;;;;;5094249;28;20225;-90
2022/10/27 08:10:26;;;;;;;14.53;9.27;;;;;;;;;;5088776;28;20201;-91
2022/10/27 08:12:53;;;;;;;11.90;8.00;;;;;;;;;;5083966;28;20235;-91
2022/10/27 08:15:22;;;;;;;14.60;8.83;;;;;;;;;;5090909;28;20229;-91
2022/10/27 08:17:52;;;;;;;14.77;8.90;;;;;;;;;;5081205;28;20232;-91
2022/10/27 08:20:19;;;;;;;11.17;8.50;;;;;;;;;;5094506;28;20242;-88
2022/10/27 08:22:46;;;;;;;13.20;9.80;;;;;;;;;;5094367;28;20232;-89
2022/10/27 08:25:18;;;;;;;13.63;9.43;;;;;;;;;;5094851;28;20265;-89
2022/10/27 08:27:52;;;;;;;11.43;9.80;;;;;;;;;;5093402;28;20239;-91
2022/10/27 08:30:20;;;;;;;13.80;9.80;;;;;;;;;;5088389;28;20216;-91
2022/10/27 08:32:49;;;;;;;15.50;10.43;;;;;;;;;;5075840;28;20270;-90
2022/10/27 08:35:16;;;;;;;15.10;11.37;;;;;;;;;;5096319;28;20220;-90
2022/10/27 08:37:43;;;;;;;15.90;11.03;;;;;;;;;;5093856;28;20232;-90
2022/10/27 08:40:11;;;;;;;16.40;12.17;;;;;;;;;;5094537;28;20193;-90
2022/10/27 08:42:42;;;;;;;16.20;12.07;;;;;;;;;;5092563;28;20290;-90
2022/10/27 08:45:12;;;;;;;14.80;12.37;;;;;;;;;;5080206;28;20229;-90
2022/10/27 08:47:39;;;;;;;15.23;12.87;;;;;;;;;;5073940;28;20233;-90
2022/10/27 08:50:13;;;;;;;18.30;13.13;;;;;;;;;;5088747;28;20840;-91
2022/10/27 08:52:42;;;;;;;18.70;13.03;;;;;;;;;;5093488;28;20267;-88
2022/10/27 08:55:18;;;;;;;26.97;15.90;;;;;;;;;;5091270;28;20228;-90
2022/10/27 08:57:50;;;;;;;19.70;14.57;;;;;;;;;;5081113;28;20228;-90
2022/10/27 09:00:17;;;;;;;21.53;16.10;;;;;;;;;;5094856;28;20205;-90
2022/10/27 09:02:58;;;;;;;24.63;17.40;;;;;;;;;;5093977;28;20236;-89
2022/10/27 09:05:40;;;;;;;24.30;16.73;;;;;;;;;;5092731;28;20260;-88
2022/10/27 09:08:13;;;;;;;23.53;16.83;;;;;;;;;;5075453;28;20239;-86
2022/10/27 09:10:42;;;;;;;23.37;16.03;;;;;;;;;;5085042;28;20569;-84
2022/10/27 09:13:15;;;;;;;24.57;18.23;;;;;;;;;;5091895;28;20252;-84
2022/10/27 09:15:43;;;;;;;26.73;19.27;;;;;;;;;;5091937;28;20567;-84
2022/10/27 09:18:15;;;;;;;25.77;18.70;;;;;;;;;;5091643;28;20293;-84
2022/10/27 09:20:45;;;;;;;28.93;18.30;;;;;;;;;;5092792;28;20192;-84
2022/10/27 09:23:16;;;;;;;26.00;19.03;;;;;;;;;;5092199;28;20232;-85
2022/10/27 09:25:44;;;;;;;24.40;18.87;;;;;;;;;;5073942;28;20208;-86
2022/10/27 09:28:17;;;;;;;25.67;18.93;;;;;;;;;;5090391;28;20224;-84
2022/10/27 09:30:46;;;;;;;23.70;18.20;;;;;;;;;;5092606;28;20185;-84
2022/10/27 09:33:15;;;;;;;23.73;17.93;;;;;;;;;;5092073;28;20239;-85
2022/10/27 09:35:42;;;;;;;24.00;16.97;;;;;;;;;;5093132;28;20196;-85
2022/10/27 09:38:12;;;;;;;22.77;16.80;;;;;;;;;;5092124;28;20354;-84
2022/10/27 09:40:40;;;;;;;22.83;18.03;;;;;;;;;;5091718;28;20205;-84
2022/10/27 09:43:10;;;;;;;26.20;17.53;;;;;;;;;;5087606;28;20228;-85
2022/10/27 09:45:39;;;;;;;25.23;19.00;;;;;;;;;;5093021;28;20192;-85
2022/10/27 09:48:09;;;;;;;26.33;19.33;;;;;;;;;;5091918;28;20231;-85
2022/10/27 09:50:39;;;;;;;25.53;18.80;;;;;;;;;;5093089;28;20227;-84
2022/10/27 09:53:07;;;;;;;22.73;17.07;;;;;;;;;;5091974;28;20228;-84
2022/10/27 09:55:50;;;;;;;22.37;15.97;;;;;;;;;;5092439;28;20212;-84
2022/10/27 09:58:17;;;;;;;22.23;16.17;;;;;;;;;;5090223;28;20236;-84
2022/10/27 10:00:44;;;;;;;19.73;15.27;;;;;;;;;;5074921;28;20635;-84
2022/10/27 10:03:19;;;;;;;16.90;13.90;;;;;;;;;;5094604;28;20236;-83
2022/10/27 10:05:46;;;;;;;22.90;13.87;;;;;;;;;;5096349;28;20208;-84
2022/10/27 10:08:15;;;;;;;20.17;14.77;;;;;;;;;;5095819;28;20232;-85
2022/10/27 10:10:53;;;;;;;21.37;13.67;;;;;;;;;;5096146;28;20291;-84
2022/10/27 10:13:21;;;;;;;17.03;12.73;;;;;;;;;;5095410;28;20259;-85
2022/10/27 10:15:48;;;;;;;16.50;11.53;;;;;;;;;;5096124;28;20203;-84
2022/10/27 10:18:24;;;;;;;19.10;12.60;;;;;;;;;;5095213;28;20224;-85
2022/10/27 10:20:57;;;;;;;15.90;11.53;;;;;;;;;;5096024;28;20679;-84
2022/10/27 10:23:25;;;;;;;17.77;12.67;;;;;;;;;;5095228;28;20232;-84
2022/10/27 10:25:54;;;;;;;17.20;11.17;;;;;;;;;;5095930;28;20219;-84
2022/10/27 10:28:26;;;;;;;13.83;10.00;;;;;;;;;;5089421;28;20624;-84
2022/10/27 10:30:55;;;;;;;15.97;11.10;;;;;;;;;;5094180;28;20208;-84
2022/10/27 10:33:23;;;;;;;18.17;11.93;;;;;;;;;;5099578;28;20282;-85
2022/10/27 10:35:51;;;;;;;14.83;11.40;;;;;;;;;;5095950;28;20192;-84
2022/10/27 10:38:28;;;;;;;17.73;10.67;;;;;;;;;;5095029;28;20229;-85
2022/10/27 10:41:10;;;;;;;15.27;9.20;;;;;;;;;;5094999;28;20196;-84
2022/10/27 10:43:38;;;;;;;19.53;9.63;;;;;;;;;;5094435;28;20268;-84
2022/10/27 10:46:06;;;;;;;18.10;9.00;;;;;;;;;;5094136;28;20216;-84
2022/10/27 10:48:39;;;;;;;13.50;7.70;;;;;;;;;;5093497;28;20228;-84
2022/10/27 10:51:07;;;;;;;11.77;7.77;;;;;;;;;;5094968;28;20236;-84
2022/10/27 10:53:37;;;;;;;11.63;7.57;;;;;;;;;;5093890;28;20316;-84
2022/10/27 10:56:06;;;;;;;10.70;6.57;;;;;;;;;;5095030;28;20612;-84
2022/10/27 10:58:36;;;;;;;9.73;7.07;;;;;;;;;;5093139;28;20243;-83
2022/10/27 11:01:05;;;;;;;8.03;5.70;;;;;;;;;;5094541;28;20974;-84
2022/10/27 11:03:34;;;;;;;8.23;5.63;;;;;;;;;;5092052;28;20248;-84
2022/10/27 11:06:02;;;;;;;8.90;4.77;;;;;;;;;;5093857;28;20181;-84
2022/10/27 11:08:34;;;;;;;7.43;4.23;;;;;;;;;;5086617;28;20232;-84
2022/10/27 11:11:04;;;;;;;5.17;4.37;;;;;;;;;;5094471;28;20536;-85
2022/10/27 11:13:36;;;;;;;9.93;3.50;;;;;;;;;;5093254;28;20233;-84
2022/10/27 11:16:05;;;;;;;7.83;4.03;;;;;;;;;;5094132;28;20201;-84
2022/10/27 11:18:37;;;;;;;6.37;3.70;;;;;;;;;;5091501;28;20220;-83
2022/10/27 11:21:07;;;;;;;4.57;3.17;;;;;;;;;;5094640;28;20199;-83
2022/10/27 11:23:42;;;;;;;5.70;3.03;;;;;;;;;;5093592;28;20712;-83
2022/10/27 11:26:09;;;;;;;4.40;2.97;;;;;;;;;;5079012;28;20203;-84
2022/10/27 11:28:44;;;;;;;6.30;3.43;;;;;;;;;;5082265;28;20240;-85
2022/10/27 11:31:17;;;;;;;5.43;3.17;;;;;;;;;;5096174;28;20200;-85
2022/10/27 11:33:47;;;;;;;4.17;3.17;;;;;;;;;;5117339;28;20228;-85
2022/10/27 11:36:19;;;;;;;5.90;3.10;;;;;;;;;;5116641;28;20738;-85
2022/10/27 11:38:52;;;;;;;4.63;2.83;;;;;;;;;;5117276;28;20219;-85
2022/10/27 11:41:22;;;;;;;5.25;3.15;;;;;;;;;;5118173;28;20203;-84
2022/10/27 11:43:55;;;;;;;5.03;3.38;;;;;;;;;;5117421;28;20201;-84
2022/10/27 11:46:27;;;;;;;6.75;2.97;;;;;;;;;;5101402;28;20196;-85
2022/10/27 11:48:56;;;;;;;5.10;2.83;;;;;;;;;;5094088;28;20194;-84
2022/10/27 11:51:30;;;;;;;4.88;2.70;;;;;;;;;;5093635;28;20664;-83
2022/10/27 11:53:58;;;;;;;4.13;2.67;;;;;;;;;;5093388;28;20262;-83
2022/10/27 11:56:31;;;;;;;6.35;3.17;;;;;;;;;;5093704;28;20189;-85
2022/10/27 11:59:05;;;;;;;2.97;2.60;;;;;;;;;;5092583;28;20204;-84
2022/10/27 12:01:45;;;;;;;5.93;3.08;;;;;;;;;;5092804;28;20204;-84
2022/10/27 12:04:16;;;;;;;5.53;3.00;;;;;;;;;;5093291;28;20229;-83
2022/10/27 12:06:48;;;;;;;6.22;2.90;;;;;;;;;;5072462;28;20719;-83
2022/10/27 12:09:21;;;;;;;5.20;2.78;;;;;;;;;;5092154;28;20193;-84
2022/10/27 12:11:53;;;;;;;7.53;3.33;;;;;;;;;;5092806;28;20227;-83
2022/10/27 12:14:24;;;;;;;3.55;2.65;;;;;;;;;;5093412;28;20232;-83
2022/10/27 12:16:55;;;;;;;4.35;2.92;;;;;;;;;;5092999;28;20228;-83
2022/10/27 12:19:25;;;;;;;5.60;3.95;;;;;;;;;;5092585;28;20181;-83
2022/10/27 12:21:55;;;;;;;5.30;2.70;;;;;;;;;;5093365;28;20256;-84
2022/10/27 12:24:26;;;;;;;5.90;2.55;;;;;;;;;;5090897;28;20225;-83
2022/10/27 12:26:54;;;;;;;4.68;2.72;;;;;;;;;;5093127;28;20239;-83
2022/10/27 12:29:22;;;;;;;6.20;3.22;;;;;;;;;;5092377;28;20188;-83
2022/10/27 12:31:54;;;;;;;3.40;3.00;;;;;;;;;;5092468;28;20229;-83
2022/10/27 12:34:24;;;;;;;5.18;2.60;;;;;;;;;;5092337;28;20231;-83
2022/10/27 12:36:53;;;;;;;5.07;2.65;;;;;;;;;;5092213;28;20232;-83
2022/10/27 12:39:26;;;;;;;5.75;2.90;;;;;;;;;;5092627;28;20177;-83
2022/10/27 12:41:56;;;;;;;4.35;2.95;;;;;;;;;;5092537;28;20235;-83
2022/10/27 12:44:31;;;;;;;4.22;2.70;;;;;;;;;;5092389;28;20232;-83
2022/10/27 12:47:08;;;;;;;4.03;2.80;;;;;;;;;;5091925;28;20232;-83
2022/10/27 12:49:39;;;;;;;7.80;4.78;;;;;;;;;;5091055;28;20199;-83
2022/10/27 12:52:11;;;;;;;5.30;2.70;;;;;;;;;;5091948;28;20233;-84
2022/10/27 12:54:47;;;;;;;9.82;3.40;;;;;;;;;;5091842;28;20236;-83
2022/10/27 12:57:22;;;;;;;4.35;2.90;;;;;;;;;;5079818;28;20239;-84
2022/10/27 12:59:55;;;;;;;5.10;2.83;;;;;;;;;;5072013;28;20220;-84
2022/10/27 13:02:24;;;;;;;7.07;2.80;;;;;;;;;;5083036;28;20232;-83
2022/10/27 13:05:09;;;;;;;2.75;2.40;;;;;;;;;;5088356;28;20217;-84
2022/10/27 13:08:02;;;;;;;3.42;2.63;;;;;;;;;;5086612;28;20238;-84
2022/10/27 13:10:37;;;;;;;5.68;3.00;;;;;;;;;;5092149;28;20189;-84
2022/10/27 13:13:14;;;;;;;4.95;3.00;;;;;;;;;;5091623;28;20228;-84
2022/10/27 13:15:46;;;;;;;9.63;2.75;;;;;;;;;;5092536;28;20214;-83
2022/10/27 13:18:20;;;;;;;4.07;2.45;;;;;;;;;;5090617;28;20251;-83
2022/10/27 13:20:58;;;;;;;4.68;2.50;;;;;;;;;;5115142;28;20263;-84
2022/10/27 13:23:31;;;;;;;3.90;2.80;;;;;;;;;;5100944;28;20220;-84
2022/10/27 13:25:59;;;;;;;4.88;2.45;;;;;;;;;;5252454;22;20309;-83
2022/10/27 13:28:31;;;;;;;3.83;2.45;;;;;;;;;;5047731;28;20237;-83
2022/10/27 13:31:01;;;;;;;4.20;2.40;;;;;;;;;;5054750;28;20256;-83
2022/10/27 13:33:33;;;;;;;4.78;2.60;;;;;;;;;;5056344;28;20588;-83
2022/10/27 13:36:17;;;;;;;7.20;2.50;;;;;;;;;;5072039;28;20221;-84
2022/10/27 13:38:45;;;;;;;4.72;2.53;;;;;;;;;;5070805;27;20229;-82
2022/10/27 13:41:32;;;;;;;5.28;3.10;;;;;;;;;;5071277;28;20206;-83
2022/10/27 13:43:59;;;;;;;4.38;2.40;;;;;;;;;;5071579;28;20229;-82
2022/10/27 13:46:45;;;;;;;4.65;2.30;;;;;;;;;;5071509;28;20201;-84
2022/10/27 13:49:35;;;;;;;4.80;2.55;;;;;;;;;;5071442;28;20216;-83
2022/10/27 13:52:21;;;;;;;5.60;2.83;;;;;;;;;;5066660;28;20228;-82
2022/10/27 13:55:07;;;;;;;4.72;2.40;;;;;;;;;;5051732;28;20261;-83
2022/10/27 13:57:46;;;;;;;5.85;2.80;;;;;;;;;;5066433;28;20233;-83
2022/10/27 14:00:14;;;;;;;4.47;2.60;;;;;;;;;;5064003;28;20194;-83
2022/10/27 14:02:47;;;;;;;8.10;2.50;;;;;;;;;;5067154;28;20737;-84
2022/10/27 14:05:22;;;;;;;6.07;2.63;;;;;;;;;;5071097;28;20614;-83
2022/10/27 14:07:49;;;;;;;4.53;2.60;;;;;;;;;;5070653;28;20599;-84
2022/10/27 14:10:16;;;;;;;4.68;2.60;;;;;;;;;;5071429;28;20197;-85
2022/10/27 14:12:45;;;;;;;4.85;2.67;;;;;;;;;;5070822;28;20237;-84
2022/10/27 14:15:17;;;;;;;4.38;2.72;;;;;;;;;;5071275;28;20239;-83
2022/10/27 14:17:44;;;;;;;7.38;2.75;;;;;;;;;;5070567;28;20239;-83
2022/10/27 14:20:18;;;;;;;3.78;2.63;;;;;;;;;;5070299;28;20209;-83
2022/10/27 14:22:47;;;;;;;7.53;2.97;;;;;;;;;;5070825;27;20265;-81
2022/10/27 14:25:17;;;;;;;4.63;2.70;;;;;;;;;;5070805;28;20225;-82
2022/10/27 14:27:45;;;;;;;6.82;2.40;;;;;;;;;;5070222;28;20603;-82
2022/10/27 14:30:15;;;;;;;3.15;2.40;;;;;;;;;;5065544;28;20197;-81
2022/10/27 14:32:42;;;;;;;3.55;2.38;;;;;;;;;;5070266;28;20228;-81
2022/10/27 14:35:17;;;;;;;9.60;2.60;;;;;;;;;;5071162;28;20263;-82
2022/10/27 14:37:44;;;;;;;4.85;2.38;;;;;;;;;;5076674;28;20315;-82
2022/10/27 14:40:16;;;;;;;5.50;2.63;;;;;;;;;;5091184;28;20205;-81
2022/10/27 14:42:44;;;;;;;4.93;2.90;;;;;;;;;;5090650;27;20225;-81
2022/10/27 14:45:16;;;;;;;3.72;2.28;;;;;;;;;;5064091;28;20326;-81
2022/10/27 14:47:44;;;;;;;8.57;2.58;;;;;;;;;;5051099;28;20230;-81
2022/10/27 14:50:13;;;;;;;2.50;2.28;;;;;;;;;;5058997;28;20201;-81
2022/10/27 14:52:41;;;;;;;4.55;2.47;;;;;;;;;;5074138;27;20228;-80
2022/10/27 14:55:18;;;;;;;3.15;2.30;;;;;;;;;;5074010;28;20732;-80